Tuesday, January 23, 2018, 7:19 AM EST
Back to Local

KHFD, Hartford-brainard Airport

Location: Hartford, CT, United States Lat: 41.733
Local Time: 7:19 AM EST (12:19 GMT) Lon: -72.65
Time Zone: US/Eastern Elev: 19 ft

Show me the last for .
Show Decoded

2018-01-23 06:53 METAR KHFD 231153Z 01005KT 1/4SM FG VV002 01/01 A2988 RMK AO2 SLP118 T00110011
                 10022 20011 58034 =
2018-01-23 05:53 METAR KHFD 231053Z 01004KT 1/4SM FG VV002 01/01 A2993 RMK AO2 SLP136 T00110011 =
2018-01-23 04:53 METAR KHFD 230953Z AUTO 02003KT 1/4SM FG VV002 01/01 A2996 RMK AO2 SLP146
                 T00110011 =
2018-01-23 03:53 METAR KHFD 230853Z AUTO 01005KT 1/2SM FG VV002 02/02 A2998 RMK AO2 SLP152
                 T00170017 58039 =
2018-01-23 02:53 METAR KHFD 230753Z AUTO 36007KT 1/2SM FG OVC002 02/02 A3003 RMK AO2 SLP168
                 T00170017 =
2018-01-23 01:53 METAR KHFD 230653Z AUTO 01006KT 3/4SM BR OVC002 02/02 A3006 RMK AO2 SLP179
                 T00170017 =
2018-01-23 01:04 METAR KHFD 230604Z AUTO 04005KT 1SM BR OVC003 02/02 A3008 RMK AO2 T00170017 =
2018-01-23 00:53 METAR KHFD 230553Z AUTO 01007KT 3/4SM BR OVC003 02/02 A3010 RMK AO2 SLP191 60000
                 T00220017 10039 20022 56021 =
2018-01-23 00:14 METAR KHFD 230514Z AUTO 01005KT 1SM BR OVC002 02/02 A3012 RMK AO2 T00220022 =
2018-01-22 23:53 METAR KHFD 230453Z 35005KT 3/4SM BR OVC003 02/02 A3013 RMK AO2 SLP201 T00220022
                 400500011 =
2018-01-22 23:04 METAR KHFD 230404Z 36005KT 3/4SM BR OVC002 03/02 A3012 RMK AO2 T00280022 =
2018-01-22 22:53 METAR KHFD 230353Z 01006KT 3/4SM BR OVC004 03/02 A3013 RMK AO2 SLP201 T00280022
                 =
2018-01-22 22:37 METAR KHFD 230337Z 01006KT 1SM BR OVC004 03/03 A3014 RMK AO2 T00280028 =
2018-01-22 22:03 METAR KHFD 230303Z 01005KT 1SM BR OVC003 03/03 A3016 RMK AO2 T00280028 =
2018-01-22 21:53 METAR KHFD 230253Z 01005KT 1SM BR OVC004 03/03 A3016 RMK AO2 SLP212 60000
                 T00280028 58017 =
2018-01-22 21:33 METAR KHFD 230233Z 01005KT 1 1/4SM BR OVC004 03/03 A3017 RMK AO2 T00330028 =
2018-01-22 21:22 METAR KHFD 230222Z 01005KT 1 3/4SM BR OVC005 03/03 A3018 RMK AO2 T00330028 =
2018-01-22 20:53 METAR KHFD 230153Z 02004KT 2 1/2SM BR OVC006 03/03 A3019 RMK AO2 SLP222
                 T00330028 =
2018-01-22 19:53 METAR KHFD 230053Z 03004KT 4SM BR OVC007 04/03 A3021 RMK AO2 RAB06E20B39E53
                 SLP229 P0000 T00390028 =
2018-01-22 18:53 METAR KHFD 222353Z 05005KT 5SM BR OVC007 04/03 A3021 RMK AO2 SLP229 60000
                 T00390028 10050 20039 53003 =
2018-01-22 17:53 METAR KHFD 222253Z 00000KT 4SM BR OVC008 04/03 A3021 RMK AO2 RAB10E26 SLP229
                 P0000 T00440033 =
2018-01-22 16:53 METAR KHFD 222153Z 05006KT 5SM BR OVC009 05/03 A3020 RMK AO2 SLP226 T00500033 =
2018-01-22 16:40 METAR KHFD 222140Z 08006KT 3SM BR OVC009 04/03 A3020 RMK AO2 T00440033 =
2018-01-22 15:53 METAR KHFD 222053Z 01006KT 2 1/2SM BR OVC012 04/03 A3020 RMK AO2 SLP226
                 T00390028 55003 =
2018-01-22 14:53 METAR KHFD 221953Z 34005KT 2SM BR FEW006 OVC013 04/03 A3020 RMK AO2 SLP225
                 T00390028 =
2018-01-22 14:03 METAR KHFD 221903Z 02005KT 2SM BR OVC013 04/03 A3020 RMK AO2 T00390028 =
2018-01-22 13:53 METAR KHFD 221853Z 02003KT 1 1/2SM BR BKN006 OVC013 04/03 A3020 RMK AO2 SLP225
                 T00390028 =
2018-01-22 12:53 METAR KHFD 221753Z 01005KT 2SM BR BKN006 OVC010 04/03 A3021 RMK AO2 SLP229 60000
                 T00390028 10039 20022 58009 =
2018-01-22 11:53 METAR KHFD 221653Z 01005KT 2SM BR OVC006 04/03 A3023 RMK AO2 SLP237 T00390028 =
2018-01-22 11:43 METAR KHFD 221643Z 34007KT 2SM BR OVC007 04/02 A3024 RMK AO2 CIG 006V010
                 T00390022 =
2018-01-22 10:53 METAR KHFD 221553Z 34006KT 1 3/4SM BR BKN005 OVC015 04/02 A3024 RMK AO2 SLP238
                 T00390022 =
2018-01-22 10:39 METAR KHFD 221539Z 34004KT 2SM BR BKN005 OVC015 04/02 A3024 RMK AO2 T00390022 =
2018-01-22 09:53 METAR KHFD 221453Z 02004KT 1 1/4SM BR BKN008 OVC015 02/02 A3025 RMK AO2 SLP242
                 60000 T00220017 51020 =
2018-01-22 09:26 METAR KHFD 221426Z 01004KT 1SM BR BKN008 OVC015 02/01 A3026 RMK AO2 T00220011 =
2018-01-22 09:13 METAR KHFD 221413Z 02005KT 1 1/4SM BR OVC016 02/01 A3026 RMK AO2 T00220011 =
2018-01-22 09:03 METAR KHFD 221403Z 35003KT 1 3/4SM BR BKN014 OVC019 02/01 A3025 RMK AO2
                 T00220011 =
2018-01-22 08:53 METAR KHFD 221353Z 01006KT 2 1/2SM BR OVC017 02/01 A3025 RMK AO2 RAB1255E49
                 SLP242 P0000 T00220006 =
2018-01-22 07:53 METAR KHFD 221253Z 35006KT 4SM BR BKN024 OVC029 03/00 A3022 RMK AO2 RAE37 SLP233
                 P0000 T00280000 =
2018-01-22 07:36 METAR KHFD 221236Z 02004KT 7SM -RA SCT024 OVC030 02/01 A3021 RMK AO2 P0000
                 T00220006 =

Support USWX by starting your Amazon purchase here.